createdAt,value
2017-12-04T00:02:10.143Z,1.00
2017-12-04T00:04:39.675Z,1.00
2017-12-04T00:07:07.221Z,1.00
2017-12-04T00:09:35.524Z,1.00
2017-12-04T00:12:03.107Z,0.90
2017-12-04T00:14:30.666Z,1.00
2017-12-04T00:17:00.208Z,1.00
2017-12-04T00:19:28.525Z,0.90
2017-12-04T00:21:56.079Z,0.90
2017-12-04T00:24:23.603Z,1.00
2017-12-04T00:26:51.939Z,0.90
2017-12-04T00:29:19.477Z,0.90
2017-12-04T00:31:47.035Z,0.90
2017-12-04T00:34:14.595Z,1.00
2017-12-04T00:36:42.136Z,1.00
2017-12-04T00:39:09.717Z,1.00
2017-12-04T00:41:37.249Z,1.00
2017-12-04T00:44:04.802Z,1.10
2017-12-04T00:46:33.113Z,1.00
2017-12-04T00:49:00.673Z,1.00
2017-12-04T00:51:29.170Z,1.10
2017-12-04T00:53:56.720Z,1.10
2017-12-04T00:56:24.288Z,1.10
2017-12-04T00:58:51.831Z,1.10
2017-12-04T01:01:19.395Z,1.10
2017-12-04T01:03:46.924Z,1.10
2017-12-04T01:06:14.466Z,1.10
2017-12-04T01:08:42.809Z,1.10
2017-12-04T01:11:11.323Z,1.10
2017-12-04T01:13:39.650Z,1.10
2017-12-04T01:16:07.176Z,1.10
2017-12-04T01:18:34.702Z,1.10
2017-12-04T01:21:02.264Z,1.10
2017-12-04T01:23:29.827Z,1.20
2017-12-04T01:25:59.609Z,1.20
2017-12-04T01:28:27.153Z,1.10
2017-12-04T01:30:54.710Z,1.20
2017-12-04T01:33:22.248Z,1.20
2017-12-04T01:35:50.566Z,1.20
2017-12-04T01:38:20.055Z,1.20
2017-12-04T01:40:47.663Z,1.20
2017-12-04T01:43:15.996Z,1.10
2017-12-04T01:45:43.539Z,1.10
2017-12-04T01:48:11.103Z,1.10
2017-12-04T01:50:38.642Z,0.90
2017-12-04T01:53:06.208Z,1.00
2017-12-04T01:55:33.747Z,1.00
2017-12-04T01:58:01.284Z,1.10
2017-12-04T02:00:29.730Z,1.00
2017-12-04T02:02:57.268Z,1.00
2017-12-04T02:05:24.834Z,1.10
2017-12-04T02:07:52.380Z,1.00
2017-12-04T02:10:19.944Z,1.10
2017-12-04T02:12:47.488Z,1.10
2017-12-04T02:15:15.064Z,1.20
2017-12-04T02:17:42.611Z,1.20
2017-12-04T02:20:10.915Z,1.20
2017-12-04T02:22:38.577Z,1.20
2017-12-04T02:25:06.115Z,1.20
2017-12-04T02:27:33.687Z,1.20
2017-12-04T02:30:01.222Z,1.20
2017-12-04T02:32:29.531Z,1.20
2017-12-04T02:34:57.104Z,1.20
2017-12-04T02:37:25.584Z,1.20
2017-12-04T02:39:53.149Z,1.20
2017-12-04T02:42:20.691Z,1.20
2017-12-04T02:44:48.264Z,1.20
2017-12-04T02:47:15.811Z,1.20
2017-12-04T02:49:43.382Z,1.20
2017-12-04T02:52:11.908Z,1.20
2017-12-04T02:54:40.444Z,1.20
2017-12-04T02:59:41.855Z,1.30
2017-12-04T03:02:09.407Z,1.30
2017-12-04T03:04:36.967Z,1.30
2017-12-04T03:07:04.498Z,1.20
2017-12-04T03:09:32.827Z,1.30
2017-12-04T03:12:00.360Z,1.30
2017-12-04T03:14:29.881Z,1.30
2017-12-04T03:16:57.416Z,1.30
2017-12-04T03:19:25.023Z,1.30
2017-12-04T03:21:52.582Z,1.40
2017-12-04T03:24:20.147Z,1.30
2017-12-04T03:26:47.711Z,1.30
2017-12-04T03:29:16.223Z,1.20
2017-12-04T03:31:44.556Z,1.30
2017-12-04T03:34:13.079Z,1.20
2017-12-04T03:36:41.686Z,1.30
2017-12-04T03:39:09.946Z,1.30
2017-12-04T03:41:38.280Z,1.30
2017-12-04T03:44:05.813Z,1.30
2017-12-04T03:46:33.357Z,1.30
2017-12-04T03:49:00.983Z,1.20
2017-12-04T03:51:29.293Z,1.30
2017-12-04T03:53:56.862Z,1.20
2017-12-04T03:56:24.433Z,1.20
2017-12-04T03:58:52.003Z,1.20
2017-12-04T04:01:19.540Z,1.30
2017-12-04T04:03:47.075Z,1.40
2017-12-04T04:06:14.643Z,1.30
2017-12-04T04:08:42.195Z,1.30
2017-12-04T04:11:09.761Z,1.30
2017-12-04T04:13:37.319Z,1.30
2017-12-04T04:16:04.859Z,1.30
2017-12-04T04:18:33.195Z,1.40
2017-12-04T04:21:01.781Z,1.40
2017-12-04T04:23:29.345Z,1.40
2017-12-04T04:25:57.877Z,1.40
2017-12-04T04:28:25.515Z,1.20
2017-12-04T04:30:53.813Z,1.20
2017-12-04T04:33:22.338Z,1.20
2017-12-04T04:35:49.884Z,1.30
2017-12-04T04:38:17.438Z,1.00
2017-12-04T04:40:44.972Z,1.00
2017-12-04T04:43:12.545Z,1.10
2017-12-04T04:45:40.102Z,1.00
2017-12-04T04:48:07.675Z,1.00
2017-12-04T04:50:35.230Z,1.10
2017-12-04T04:53:02.821Z,1.00
2017-12-04T04:55:31.327Z,0.80
2017-12-04T04:57:59.660Z,0.90
2017-12-04T05:00:27.204Z,0.90
2017-12-04T05:02:54.774Z,0.80
2017-12-04T05:05:22.315Z,0.40
2017-12-04T05:07:49.888Z,0.60
2017-12-04T05:10:17.431Z,0.60
2017-12-04T05:12:45.976Z,0.50
2017-12-04T05:15:14.296Z,0.90
2017-12-04T05:17:41.861Z,0.90
2017-12-04T05:20:09.426Z,1.00
2017-12-04T05:22:37.020Z,1.10
2017-12-04T05:25:05.332Z,1.30
2017-12-04T05:27:32.900Z,1.30
2017-12-04T05:30:00.440Z,1.30
2017-12-04T05:32:28.008Z,1.30
2017-12-04T05:34:55.546Z,1.40
2017-12-04T05:37:23.883Z,1.30
2017-12-04T05:39:52.536Z,1.30
2017-12-04T05:42:20.119Z,1.40
2017-12-04T05:44:47.669Z,1.30
2017-12-04T05:47:15.264Z,1.40
2017-12-04T05:49:42.809Z,1.40
2017-12-04T05:52:11.382Z,1.40
2017-12-04T05:54:38.923Z,1.40
2017-12-04T05:57:06.487Z,1.40
2017-12-04T05:59:34.071Z,1.40
2017-12-04T06:02:01.648Z,1.30
2017-12-04T06:04:29.956Z,1.40
2017-12-04T06:06:57.518Z,1.40
2017-12-04T06:09:25.067Z,1.40
2017-12-04T06:11:52.648Z,1.50
2017-12-04T06:14:20.187Z,1.40
2017-12-04T06:16:47.760Z,1.50
2017-12-04T06:19:16.256Z,1.50
2017-12-04T06:21:43.822Z,1.40
2017-12-04T06:24:11.368Z,1.20
2017-12-04T06:26:38.969Z,1.10
2017-12-04T06:29:06.496Z,1.30
2017-12-04T06:31:34.060Z,1.30
2017-12-04T06:34:02.579Z,1.20
2017-12-04T06:36:31.907Z,1.40
2017-12-04T06:38:59.443Z,1.40
2017-12-04T06:41:27.775Z,1.40
2017-12-04T06:43:55.316Z,1.30
2017-12-04T06:46:22.875Z,1.30
2017-12-04T06:48:50.500Z,1.20
2017-12-04T06:51:18.839Z,1.20
2017-12-04T06:53:46.405Z,1.20
2017-12-04T06:56:14.934Z,1.20
2017-12-04T06:58:42.490Z,1.20
2017-12-04T07:01:10.600Z,1.20
2017-12-04T07:03:38.146Z,1.20
2017-12-04T07:06:05.708Z,1.30
2017-12-04T07:08:33.257Z,1.30
2017-12-04T07:11:00.816Z,1.20
2017-12-04T07:13:28.351Z,1.20
2017-12-04T07:15:56.675Z,1.30
2017-12-04T07:18:24.228Z,1.30
2017-12-04T07:20:51.795Z,1.30
2017-12-04T07:23:19.330Z,1.40
2017-12-04T07:25:46.896Z,1.30
2017-12-04T07:28:14.440Z,1.40
2017-12-04T07:30:42.480Z,1.40
2017-12-04T07:33:10.806Z,1.50
2017-12-04T07:35:38.381Z,1.40
2017-12-04T07:38:05.919Z,1.40
2017-12-04T07:40:33.485Z,1.50
2017-12-04T07:43:01.020Z,1.40
2017-12-04T07:45:29.524Z,1.30
2017-12-04T07:47:57.083Z,1.50
2017-12-04T07:50:24.743Z,1.30
2017-12-04T07:52:53.255Z,1.40
2017-12-04T07:55:22.314Z,1.70
2017-12-04T07:57:49.851Z,1.70
2017-12-04T08:00:17.384Z,1.70
2017-12-04T08:02:45.723Z,1.80
2017-12-04T08:05:13.269Z,1.80
2017-12-04T08:07:41.519Z,1.80
2017-12-04T08:10:09.840Z,1.90
2017-12-04T08:12:37.406Z,1.80
2017-12-04T08:15:04.967Z,1.90
2017-12-04T08:17:34.463Z,1.90
2017-12-04T08:20:02.032Z,1.90
2017-12-04T08:22:29.600Z,2.00
2017-12-04T08:24:57.911Z,2.10
2017-12-04T08:27:25.524Z,2.10
2017-12-04T08:29:53.104Z,2.10
2017-12-04T08:32:20.677Z,2.10
2017-12-04T08:34:48.252Z,2.20
2017-12-04T08:37:15.818Z,2.20
2017-12-04T08:39:43.363Z,2.30
2017-12-04T08:42:10.923Z,2.30
2017-12-04T08:44:38.487Z,2.40
2017-12-04T08:47:06.092Z,2.40
2017-12-04T08:49:33.631Z,2.40
2017-12-04T08:52:01.191Z,2.40
2017-12-04T08:54:28.734Z,2.30
2017-12-04T08:56:56.302Z,2.20
2017-12-04T08:59:23.840Z,2.30
2017-12-04T09:01:51.408Z,2.20
2017-12-04T09:04:18.943Z,2.20
2017-12-04T09:06:46.511Z,2.30
2017-12-04T09:09:14.099Z,2.40
2017-12-04T09:11:42.611Z,2.40
2017-12-04T09:14:11.132Z,2.50
2017-12-04T09:16:38.723Z,2.60
2017-12-04T09:19:06.256Z,2.70
2017-12-04T09:21:33.827Z,2.80
2017-12-04T09:24:01.364Z,2.80
2017-12-04T09:26:28.927Z,2.80
2017-12-04T09:28:57.443Z,2.80
2017-12-04T09:31:25.023Z,2.90
2017-12-04T09:33:52.555Z,2.90
2017-12-04T09:36:20.115Z,2.90
2017-12-04T09:38:48.602Z,3.00
2017-12-04T09:41:16.168Z,2.80
2017-12-04T09:43:44.708Z,2.80
2017-12-04T09:46:14.314Z,2.80
2017-12-04T09:48:41.868Z,2.80
2017-12-04T09:51:09.467Z,2.80
2017-12-04T09:53:37.013Z,2.80
2017-12-04T09:56:04.606Z,2.90
2017-12-04T09:58:32.150Z,2.90
2017-12-04T10:00:59.720Z,2.90
2017-12-04T10:03:27.289Z,3.00
2017-12-04T10:05:54.852Z,3.00
2017-12-04T10:08:23.343Z,3.10
2017-12-04T10:10:51.674Z,3.20
2017-12-04T10:13:20.223Z,3.20
2017-12-04T10:15:48.756Z,3.20
2017-12-04T10:18:16.293Z,3.30
2017-12-04T10:20:43.884Z,3.40
2017-12-04T10:23:11.432Z,3.40
2017-12-04T10:25:40.613Z,3.30
2017-12-04T10:28:08.151Z,3.50
2017-12-04T10:30:36.650Z,3.60
2017-12-04T10:33:04.179Z,3.60
2017-12-04T10:35:32.702Z,3.60
2017-12-04T10:38:00.223Z,3.60
2017-12-04T10:40:27.824Z,3.60
2017-12-04T10:42:55.368Z,3.70
2017-12-04T10:45:22.940Z,3.70
2017-12-04T10:47:50.495Z,3.70
2017-12-04T10:50:18.051Z,3.70
2017-12-04T10:52:46.564Z,3.80
2017-12-04T10:55:15.812Z,3.80
2017-12-04T10:57:43.367Z,3.80
2017-12-04T11:00:10.959Z,3.70
2017-12-04T11:02:38.507Z,3.80
2017-12-04T11:05:06.113Z,3.80
2017-12-04T11:07:34.505Z,3.90
2017-12-04T11:10:02.102Z,3.90
2017-12-04T11:12:29.631Z,3.90
2017-12-04T11:14:57.195Z,3.90
2017-12-04T11:17:24.723Z,3.90
2017-12-04T11:19:54.219Z,3.90
2017-12-04T11:22:22.518Z,3.90
2017-12-04T11:24:51.076Z,3.80
2017-12-04T11:27:19.380Z,3.90
2017-12-04T11:29:46.939Z,3.90
2017-12-04T11:32:14.476Z,3.90
2017-12-04T11:34:42.803Z,3.50
2017-12-04T11:37:10.355Z,3.50
2017-12-04T11:39:38.797Z,3.50
2017-12-04T11:42:06.340Z,3.30
2017-12-04T11:44:34.984Z,3.30
2017-12-04T11:47:02.532Z,3.30
2017-12-04T11:49:30.094Z,3.30
2017-12-04T11:51:57.638Z,3.00
2017-12-04T11:54:25.208Z,2.80
2017-12-04T11:56:52.766Z,2.90
2017-12-04T11:59:20.334Z,2.90
2017-12-04T12:01:47.868Z,3.00
2017-12-04T12:04:15.436Z,3.30
2017-12-04T12:06:42.976Z,3.30
2017-12-04T12:09:10.547Z,3.50
2017-12-04T12:11:38.134Z,3.70
2017-12-04T12:14:05.697Z,3.80
2017-12-04T12:16:33.249Z,3.80
2017-12-04T12:19:00.816Z,3.70
2017-12-04T12:21:28.351Z,3.70
2017-12-04T12:23:57.876Z,3.70
2017-12-04T12:26:25.413Z,3.70
2017-12-04T12:28:53.043Z,3.60
2017-12-04T12:31:21.380Z,3.50
2017-12-04T12:33:48.943Z,3.50
2017-12-04T12:36:16.495Z,3.50
2017-12-04T12:38:44.084Z,3.50
2017-12-04T12:41:12.580Z,3.50
2017-12-04T12:43:42.873Z,3.60
2017-12-04T12:46:10.416Z,3.60
2017-12-04T12:48:37.982Z,3.70
2017-12-04T12:51:05.523Z,3.70
2017-12-04T12:53:33.080Z,3.80
2017-12-04T12:56:00.648Z,3.90
2017-12-04T12:58:28.500Z,3.90
2017-12-04T13:00:56.450Z,3.90
2017-12-04T13:03:24.056Z,3.90
2017-12-04T13:05:51.595Z,3.80
2017-12-04T13:08:20.109Z,3.90
2017-12-04T13:10:47.703Z,3.90
2017-12-04T13:13:15.277Z,3.80
2017-12-04T13:15:42.884Z,3.80
2017-12-04T13:18:10.415Z,3.80
2017-12-04T13:20:39.957Z,3.80
2017-12-04T13:23:07.536Z,3.90
2017-12-04T13:25:35.102Z,3.90
2017-12-04T13:28:03.604Z,3.80
2017-12-04T13:30:31.170Z,3.80
2017-12-04T13:33:11.313Z,3.70
2017-12-04T13:35:51.647Z,3.60
2017-12-04T13:38:19.196Z,3.60
2017-12-04T13:40:47.524Z,3.30
2017-12-04T13:43:15.093Z,3.30
2017-12-04T13:45:43.455Z,3.30
2017-12-04T13:48:10.995Z,3.30
2017-12-04T13:50:38.580Z,3.20
2017-12-04T13:53:06.153Z,3.00
2017-12-04T13:55:33.742Z,3.00
2017-12-04T13:58:02.042Z,2.80
2017-12-04T14:00:29.611Z,2.80
2017-12-04T14:02:57.180Z,2.80
2017-12-04T14:05:24.744Z,3.00
2017-12-04T14:07:52.284Z,3.00
2017-12-04T14:10:19.839Z,3.10
2017-12-04T14:12:47.392Z,3.10
2017-12-04T14:15:14.951Z,3.20
2017-12-04T14:17:42.492Z,3.20
2017-12-04T14:20:10.815Z,3.00
2017-12-04T14:22:39.281Z,3.00
2017-12-04T14:25:06.855Z,3.00
2017-12-04T14:27:40.115Z,3.10
2017-12-04T14:30:07.675Z,3.20
2017-12-04T14:32:35.243Z,3.30
2017-12-04T14:35:02.820Z,3.30
2017-12-04T14:37:30.368Z,3.30
2017-12-04T14:39:57.921Z,3.30
2017-12-04T14:42:25.455Z,3.30
2017-12-04T14:44:53.015Z,3.30
2017-12-04T14:47:21.787Z,2.90
2017-12-04T14:49:51.160Z,3.00
2017-12-04T14:52:18.699Z,2.90
2017-12-04T14:54:46.258Z,2.80
2017-12-04T14:57:13.819Z,2.70
2017-12-04T14:59:41.387Z,2.60
2017-12-04T15:02:08.937Z,2.70
2017-12-04T15:04:37.466Z,2.80
2017-12-04T15:07:05.798Z,3.00
2017-12-04T15:09:33.368Z,3.00
2017-12-04T15:12:00.902Z,3.10
2017-12-04T15:14:28.451Z,3.10
2017-12-04T15:16:55.996Z,3.10
2017-12-04T15:19:25.554Z,3.10
2017-12-04T15:21:53.110Z,3.20
2017-12-04T15:24:20.671Z,3.10
2017-12-04T15:26:48.205Z,2.80
2017-12-04T15:29:15.777Z,2.90
2017-12-04T15:31:43.330Z,2.90
2017-12-04T15:34:11.017Z,3.00
2017-12-04T15:36:39.525Z,3.00
2017-12-04T15:39:08.819Z,3.00
2017-12-04T15:41:37.144Z,3.00
2017-12-04T15:44:06.652Z,3.00
2017-12-04T15:46:34.214Z,3.00
2017-12-04T15:49:01.777Z,3.00
2017-12-04T15:51:29.342Z,3.00
2017-12-04T15:53:57.932Z,3.00
2017-12-04T15:56:26.454Z,3.00
2017-12-04T15:58:54.011Z,3.00
2017-12-04T16:01:21.555Z,2.90
2017-12-04T16:03:49.899Z,2.90
2017-12-04T16:06:17.448Z,2.90
2017-12-04T16:08:45.031Z,3.00
2017-12-04T16:11:12.575Z,2.90
2017-12-04T16:13:40.637Z,2.80
2017-12-04T16:16:08.195Z,2.90
2017-12-04T16:18:35.759Z,2.90
2017-12-04T16:21:04.266Z,2.90
2017-12-04T16:23:31.836Z,2.90
2017-12-04T16:26:00.167Z,2.90
2017-12-04T16:28:27.756Z,2.90
2017-12-04T16:30:55.308Z,2.90
2017-12-04T16:33:22.876Z,2.90
2017-12-04T16:35:50.439Z,2.90
2017-12-04T16:38:17.991Z,2.90
2017-12-04T16:40:45.608Z,2.90
2017-12-04T16:43:13.188Z,2.90
2017-12-04T16:45:40.780Z,2.90
2017-12-04T16:48:09.125Z,2.90
2017-12-04T16:50:36.713Z,2.80
2017-12-04T16:53:04.297Z,2.90
2017-12-04T16:55:31.932Z,2.90
2017-12-04T16:57:59.471Z,2.90
2017-12-04T17:00:27.045Z,2.80
2017-12-04T17:02:54.661Z,2.80
2017-12-04T17:05:22.238Z,2.80
2017-12-04T17:07:49.777Z,2.80
2017-12-04T17:10:17.336Z,2.80
2017-12-04T17:12:44.883Z,2.80
2017-12-04T17:15:12.485Z,2.80
2017-12-04T17:17:40.023Z,2.90
2017-12-04T17:20:09.550Z,2.90
2017-12-04T17:22:37.123Z,2.80
2017-12-04T17:25:04.682Z,2.80
2017-12-04T17:27:32.217Z,2.80
2017-12-04T17:29:59.984Z,2.90
2017-12-04T17:32:27.535Z,2.90
2017-12-04T17:34:55.099Z,3.00
2017-12-04T17:37:23.114Z,3.00
2017-12-04T17:39:51.471Z,3.10
2017-12-04T17:42:19.003Z,3.10
2017-12-04T17:44:46.584Z,3.00
2017-12-04T17:47:14.147Z,3.00
2017-12-04T17:49:42.708Z,3.00
2017-12-04T17:52:10.259Z,3.00
2017-12-04T17:54:37.860Z,2.90
2017-12-04T17:57:07.525Z,2.90
2017-12-04T17:59:35.107Z,2.90
2017-12-04T18:02:02.745Z,2.80
2017-12-04T18:04:31.292Z,2.90
2017-12-04T18:06:58.831Z,2.90
2017-12-04T18:09:27.204Z,3.00
2017-12-04T18:11:55.551Z,3.00
2017-12-04T18:14:23.199Z,3.00
2017-12-04T18:16:50.789Z,3.00
2017-12-04T18:19:18.371Z,3.00
2017-12-04T18:21:46.937Z,3.00
2017-12-04T18:24:15.294Z,3.10
2017-12-04T18:26:42.911Z,3.10
2017-12-04T18:29:11.486Z,3.10
2017-12-04T18:31:39.029Z,3.10
2017-12-04T18:34:07.472Z,3.10
2017-12-04T18:36:38.545Z,3.00
2017-12-04T18:39:06.902Z,3.00
2017-12-04T18:41:34.483Z,3.00
2017-12-04T18:44:02.840Z,2.60
2017-12-04T18:46:30.404Z,2.60
2017-12-04T18:48:57.980Z,2.70
2017-12-04T18:51:26.285Z,2.80
2017-12-04T18:53:53.867Z,2.80
2017-12-04T18:56:21.412Z,3.00
2017-12-04T18:58:48.991Z,3.00
2017-12-04T19:01:16.548Z,3.00
2017-12-04T19:03:44.910Z,3.00
2017-12-04T19:06:12.470Z,3.00
2017-12-04T19:08:40.908Z,3.10
2017-12-04T19:11:10.187Z,3.20
2017-12-04T19:13:37.856Z,3.20
2017-12-04T19:16:06.898Z,3.10
2017-12-04T19:18:34.457Z,3.10
2017-12-04T19:21:01.989Z,3.20
2017-12-04T19:23:30.584Z,3.20
2017-12-04T19:25:58.191Z,3.20
2017-12-04T19:28:25.768Z,3.20
2017-12-04T19:30:54.288Z,3.10
2017-12-04T19:33:21.855Z,3.00
2017-12-04T19:35:49.395Z,3.00
2017-12-04T19:38:16.980Z,2.90
2017-12-04T19:40:44.550Z,2.80
2017-12-04T19:43:12.769Z,2.60
2017-12-04T19:45:41.391Z,2.40
2017-12-04T19:48:08.964Z,2.30
2017-12-04T19:50:37.462Z,2.40
2017-12-04T19:53:05.024Z,2.50
2017-12-04T19:55:32.575Z,2.50
2017-12-04T19:58:00.195Z,2.60
2017-12-04T20:00:27.783Z,2.70
2017-12-04T20:02:55.394Z,2.80
2017-12-04T20:05:23.899Z,2.90
2017-12-04T20:07:51.486Z,2.80
2017-12-04T20:10:19.152Z,2.90
2017-12-04T20:12:46.715Z,3.00
2017-12-04T20:15:16.192Z,3.00
2017-12-04T20:17:43.758Z,3.00
2017-12-04T20:20:19.691Z,3.00
2017-12-04T20:22:47.256Z,3.00
2017-12-04T20:25:14.972Z,3.00
2017-12-04T20:27:42.555Z,2.90
2017-12-04T20:30:10.199Z,3.00
2017-12-04T20:32:38.532Z,3.00
2017-12-04T20:35:06.096Z,3.00
2017-12-04T20:37:33.703Z,3.00
2017-12-04T20:40:01.999Z,3.00
2017-12-04T20:42:30.700Z,3.00
2017-12-04T20:44:58.248Z,3.00
2017-12-04T20:47:26.809Z,2.80
2017-12-04T20:49:55.116Z,2.60
2017-12-04T20:52:22.711Z,2.60
2017-12-04T20:54:50.246Z,2.70
2017-12-04T20:57:17.812Z,2.70
2017-12-04T20:59:45.483Z,2.70
2017-12-04T21:02:13.044Z,2.70
2017-12-04T21:04:40.796Z,2.70
2017-12-04T21:07:09.288Z,2.60
2017-12-04T21:09:48.781Z,2.50
2017-12-04T21:12:17.311Z,2.70
2017-12-04T21:14:57.760Z,2.90
2017-12-04T21:17:33.212Z,2.90
2017-12-04T21:20:00.767Z,3.00
2017-12-04T21:22:28.335Z,3.00
2017-12-04T21:24:56.018Z,3.00
2017-12-04T21:27:24.449Z,3.10
2017-12-04T21:29:51.992Z,3.10
2017-12-04T21:32:19.635Z,3.10
2017-12-04T21:34:47.235Z,3.10
2017-12-04T21:37:15.747Z,3.00
2017-12-04T21:39:43.311Z,3.00
2017-12-04T21:42:11.831Z,3.10
2017-12-04T21:44:39.395Z,2.80
2017-12-04T21:47:06.937Z,3.00
2017-12-04T21:49:34.508Z,2.80
2017-12-04T21:52:02.043Z,2.80
2017-12-04T21:54:29.636Z,2.70
2017-12-04T21:56:57.192Z,2.80
2017-12-04T21:59:24.756Z,2.80
2017-12-04T22:01:52.291Z,2.90
2017-12-04T22:04:19.868Z,2.90
2017-12-04T22:06:47.441Z,2.90
2017-12-04T22:09:15.039Z,3.00
2017-12-04T22:11:43.355Z,2.90
2017-12-04T22:14:10.947Z,2.90
2017-12-04T22:16:38.484Z,2.90
2017-12-04T22:19:06.040Z,3.00
2017-12-04T22:24:53.228Z,3.00
2017-12-04T22:27:20.852Z,3.00
2017-12-04T22:29:48.390Z,3.00
2017-12-04T22:32:16.054Z,3.00
2017-12-04T22:34:43.889Z,2.70
2017-12-04T22:37:12.251Z,2.80
2017-12-04T22:39:39.869Z,2.80
2017-12-04T22:42:08.458Z,2.80
2017-12-04T22:44:36.044Z,2.70
2017-12-04T22:47:03.620Z,2.80
2017-12-04T22:49:31.936Z,2.90
2017-12-04T22:51:59.519Z,2.90
2017-12-04T22:54:28.052Z,2.90
2017-12-04T22:56:56.414Z,2.90
2017-12-04T22:59:24.756Z,2.90
2017-12-04T23:01:53.321Z,2.90
2017-12-04T23:04:20.856Z,2.90
2017-12-04T23:06:48.449Z,2.90
2017-12-04T23:09:16.036Z,2.90
2017-12-04T23:11:43.605Z,3.00
2017-12-04T23:14:11.136Z,2.90
2017-12-04T23:16:38.739Z,2.80
2017-12-04T23:19:07.039Z,2.80
2017-12-04T23:21:34.658Z,2.80
2017-12-04T23:24:02.180Z,2.90
2017-12-04T23:26:29.768Z,2.90
2017-12-04T23:28:57.305Z,2.90
2017-12-04T23:31:24.889Z,3.00
2017-12-04T23:33:52.427Z,3.00
2017-12-04T23:36:19.963Z,2.90
2017-12-04T23:38:47.527Z,2.80
2017-12-04T23:41:15.133Z,2.80
2017-12-04T23:43:42.683Z,2.90
2017-12-04T23:46:11.177Z,2.90
2017-12-04T23:48:41.475Z,2.90
2017-12-04T23:51:09.016Z,2.90
2017-12-04T23:53:36.571Z,2.70
2017-12-04T23:56:05.063Z,2.80
2017-12-04T23:58:32.647Z,2.80
